Observations for CHERBOURG MAUPERTUS, France (LFRC)

LFRC 171900Z AUTO 26005KT CAVOK 19/11 Q1018 
LFRC 171830Z AUTO 26008KT CAVOK 18/11 Q1018 
LFRC 171800Z AUTO 27008KT CAVOK 19/11 Q1018 
LFRC 171730Z AUTO 28008KT 250V310 CAVOK 20/11 Q1018 NOSIG   
LFRC 171700Z AUTO 29007KT 260V340 9999 FEW034 BKN068 20/13 Q1018 NOSIG  
LFRC 171630Z AUTO 30008KT 270V350 9999 BKN035 BKN054 OVC070 19/13 Q1018 NOSIG   
LFRC 171600Z AUTO 31009KT 280V340 9999 FEW033 BKN068 19/12 Q1018 NOSIG  
LFRC 171530Z AUTO 31010KT 270V340 9999 SCT033 BKN066 20/12 Q1018 NOSIG  
LFRC 171500Z AUTO 30008KT 270V350 9999 FEW037 20/12 Q1019 NOSIG 
LFRC 171430Z AUTO 31009KT CAVOK 20/12 Q1019 NOSIG   
LFRC 171400Z AUTO 30007KT 270V350 CAVOK 20/12 Q1019 NOSIG   
LFRC 171330Z AUTO 30007KT 270V350 CAVOK 20/12 Q1019 NOSIG   
LFRC 171300Z AUTO 31006KT 260V350 CAVOK 19/12 Q1019 NOSIG   
LFRC 171230Z AUTO 31009KT 280V340 9999 SCT026 BKN031 BKN038 18/11 Q1019 NOSIG   
LFRC 171200Z AUTO 31005KT 270V020 9999 FEW024 SCT029 BKN054 19/13 Q1019 NOSIG   
LFRC 171130Z AUTO 25008KT 9999 FEW019 BKN049 OVC058 18/13 Q1019 NOSIG   
LFRC 171100Z AUTO 27009KT 9999 FEW019 OVC048 18/13 Q1019 NOSIG  
LFRC 171030Z AUTO 26007KT 9999 SCT017 SCT034 BKN045 17/14 Q1019 NOSIG   
LFRC 171000Z AUTO 27005KT 200V330 9999 -RA SCT018 BKN025 BKN036 16/14 Q1019 NOSIG   
LFRC 170930Z AUTO 24006KT 220V280 9999 FEW023 SCT035 OVC056 18/12 Q1019 NOSIG   
LFRC 170900Z AUTO 23007KT 190V260 CAVOK 18/12 Q1018 NOSIG   
LFRC 170830Z AUTO 22008KT 9999 SCT023 OVC050 17/12 Q1018 NOSIG  
LFRC 170800Z AUTO 26007KT 9999 BKN024 BKN029 BKN058 18/12 Q1018 NOSIG   
LFRC 170730Z AUTO 28007KT 230V330 9999 SCT022 BKN060 18/12 Q1018 NOSIG  
LFRC 170700Z AUTO 25006KT 220V300 CAVOK 18/12 Q1018 NOSIG   
LFRC 170630Z AUTO 26005KT 9999 FEW019 17/11 Q1018 NOSIG 
LFRC 170600Z AUTO 25005KT CAVOK 16/11 Q1018 NOSIG   
LFRC 170530Z AUTO 24005KT CAVOK 14/12 Q1018 NOSIG   
LFRC 170500Z AUTO 23004KT CAVOK 12/10 Q1017 
LFRC 170430Z AUTO 24004KT CAVOK 11/09 Q1017 
LFRC 170400Z AUTO 24004KT CAVOK 11/09 Q1017 
LFRC 170330Z AUTO 25003KT 9999 FEW044 11/10 Q1017   
LFRC 170300Z AUTO 26003KT 9999 FEW045 12/10 Q1017   
LFRC 170230Z AUTO 27002KT CAVOK 12/10 Q1017 
LFRC 170200Z AUTO 29002KT CAVOK 13/11 Q1017 
LFRC 170130Z AUTO VRB02KT CAVOK 14/12 Q1017 
LFRC 170100Z AUTO 29005KT CAVOK 14/12 Q1017 
LFRC 170030Z AUTO 29005KT CAVOK 15/12 Q1017 
LFRC 170000Z AUTO 30007KT 280V340 CAVOK 16/13 Q1017 
LFRC 162330Z AUTO 26008KT 9999 FEW042 15/13 Q1017   
LFRC 162300Z AUTO 27009KT 9999 SCT045 16/13 Q1017   
LFRC 162230Z AUTO 27007KT 240V300 9999 FEW044 SCT074 16/13 Q1016
LFRC 162200Z AUTO 28009KT 9999 SCT037 17/13 Q1016   
LFRC 162130Z AUTO 28011KT 9999 OVC040 17/14 Q1016   
LFRC 162100Z AUTO 28010KT 9999 BKN040 17/14 Q1016   
LFRC 162030Z AUTO 27008KT CAVOK 17/14 Q1016 
LFRC 162000Z AUTO 28009KT 9999 FEW011 17/15 Q1016   
LFRC 161930Z AUTO 28012KT 9999 SCT013 SCT120 19/15 Q1015
LFRC 161900Z AUTO 26009KT CAVOK 20/15 Q1015 
LFRC 161830Z AUTO 29010KT CAVOK 20/14 Q1015